sensor_id;sensor_type;location;lat;lon;timestamp;P1;durP1;ratioP1;P2;durP2;ratioP2
30707;SDS011;17458;48.958;8.284;2023-01-06T00:01:14;4.85;;;2.33;;
30707;SDS011;17458;48.958;8.284;2023-01-06T00:04:00;5.20;;;2.72;;
30707;SDS011;17458;48.958;8.284;2023-01-06T00:06:46;8.48;;;2.63;;
30707;SDS011;17458;48.958;8.284;2023-01-06T00:09:30;5.03;;;2.13;;
30707;SDS011;17458;48.958;8.284;2023-01-06T00:12:14;4.00;;;2.28;;
30707;SDS011;17458;48.958;8.284;2023-01-06T00:14:58;4.45;;;2.22;;
30707;SDS011;17458;48.958;8.284;2023-01-06T00:17:43;2.05;;;1.85;;
30707;SDS011;17458;48.958;8.284;2023-01-06T00:20:27;7.15;;;2.00;;
30707;SDS011;17458;48.958;8.284;2023-01-06T00:23:11;2.75;;;2.15;;
30707;SDS011;17458;48.958;8.284;2023-01-06T00:25:56;2.35;;;1.98;;
30707;SDS011;17458;48.958;8.284;2023-01-06T00:28:40;6.55;;;2.28;;
30707;SDS011;17458;48.958;8.284;2023-01-06T00:31:25;5.80;;;2.30;;
30707;SDS011;17458;48.958;8.284;2023-01-06T00:34:09;2.33;;;1.92;;
30707;SDS011;17458;48.958;8.284;2023-01-06T00:36:57;5.95;;;2.40;;
30707;SDS011;17458;48.958;8.284;2023-01-06T00:39:41;6.82;;;2.00;;
30707;SDS011;17458;48.958;8.284;2023-01-06T00:42:26;6.20;;;2.30;;
30707;SDS011;17458;48.958;8.284;2023-01-06T00:45:10;2.75;;;1.85;;
30707;SDS011;17458;48.958;8.284;2023-01-06T00:47:54;4.55;;;2.25;;
30707;SDS011;17458;48.958;8.284;2023-01-06T00:50:42;5.70;;;2.33;;
30707;SDS011;17458;48.958;8.284;2023-01-06T00:53:33;5.38;;;2.50;;
30707;SDS011;17458;48.958;8.284;2023-01-06T00:56:17;3.63;;;2.05;;
30707;SDS011;17458;48.958;8.284;2023-01-06T00:59:01;2.38;;;2.00;;
30707;SDS011;17458;48.958;8.284;2023-01-06T01:01:48;4.43;;;2.67;;
30707;SDS011;17458;48.958;8.284;2023-01-06T01:04:35;2.10;;;1.90;;
30707;SDS011;17458;48.958;8.284;2023-01-06T01:07:19;2.83;;;1.83;;
30707;SDS011;17458;48.958;8.284;2023-01-06T01:10:06;2.65;;;2.08;;
30707;SDS011;17458;48.958;8.284;2023-01-06T01:12:52;6.95;;;2.35;;
30707;SDS011;17458;48.958;8.284;2023-01-06T01:15:37;2.63;;;2.13;;
30707;SDS011;17458;48.958;8.284;2023-01-06T01:18:21;3.88;;;2.00;;
30707;SDS011;17458;48.958;8.284;2023-01-06T01:21:05;4.43;;;1.95;;
30707;SDS011;17458;48.958;8.284;2023-01-06T01:23:49;2.72;;;1.77;;
30707;SDS011;17458;48.958;8.284;2023-01-06T01:26:34;2.95;;;2.08;;
30707;SDS011;17458;48.958;8.284;2023-01-06T01:29:18;5.55;;;1.95;;
30707;SDS011;17458;48.958;8.284;2023-01-06T01:32:03;4.68;;;2.08;;
30707;SDS011;17458;48.958;8.284;2023-01-06T01:34:49;6.68;;;1.75;;
30707;SDS011;17458;48.958;8.284;2023-01-06T01:37:33;2.58;;;1.92;;
30707;SDS011;17458;48.958;8.284;2023-01-06T01:40:18;3.30;;;2.03;;
30707;SDS011;17458;48.958;8.284;2023-01-06T01:43:02;3.80;;;1.80;;
30707;SDS011;17458;48.958;8.284;2023-01-06T01:45:48;2.08;;;1.58;;
30707;SDS011;17458;48.958;8.284;2023-01-06T01:48:35;4.15;;;1.85;;
30707;SDS011;17458;48.958;8.284;2023-01-06T01:51:23;3.20;;;1.80;;
30707;SDS011;17458;48.958;8.284;2023-01-06T01:54:14;4.60;;;1.90;;
30707;SDS011;17458;48.958;8.284;2023-01-06T01:57:20;3.42;;;1.70;;
30707;SDS011;17458;48.958;8.284;2023-01-06T02:00:09;5.72;;;2.10;;
30707;SDS011;17458;48.958;8.284;2023-01-06T02:02:57;2.08;;;1.85;;
30707;SDS011;17458;48.958;8.284;2023-01-06T02:05:44;1.92;;;1.60;;
30707;SDS011;17458;48.958;8.284;2023-01-06T02:08:36;2.88;;;1.80;;
30707;SDS011;17458;48.958;8.284;2023-01-06T02:11:24;2.08;;;1.90;;
30707;SDS011;17458;48.958;8.284;2023-01-06T02:14:17;2.40;;;2.00;;
30707;SDS011;17458;48.958;8.284;2023-01-06T02:17:24;2.25;;;1.80;;
30707;SDS011;17458;48.958;8.284;2023-01-06T02:32:33;2.65;;;2.08;;
30707;SDS011;17458;48.958;8.284;2023-01-06T02:44:56;2.70;;;2.00;;
30707;SDS011;17458;48.958;8.284;2023-01-06T02:48:08;3.55;;;2.33;;
30707;SDS011;17458;48.958;8.284;2023-01-06T02:51:03;3.08;;;2.72;;
30707;SDS011;17458;48.958;8.284;2023-01-06T02:56:56;5.32;;;2.33;;
30707;SDS011;17458;48.958;8.284;2023-01-06T03:00:00;2.58;;;2.22;;
30707;SDS011;17458;48.958;8.284;2023-01-06T03:02:58;4.90;;;2.78;;
30707;SDS011;17458;48.958;8.284;2023-01-06T03:05:51;2.95;;;2.35;;
30707;SDS011;17458;48.958;8.284;2023-01-06T03:08:45;3.75;;;2.50;;
30707;SDS011;17458;48.958;8.284;2023-01-06T03:11:33;2.33;;;2.13;;
30707;SDS011;17458;48.958;8.284;2023-01-06T03:14:24;3.38;;;2.40;;
30707;SDS011;17458;48.958;8.284;2023-01-06T03:17:11;2.65;;;2.33;;
30707;SDS011;17458;48.958;8.284;2023-01-06T03:19:56;2.25;;;1.98;;
30707;SDS011;17458;48.958;8.284;2023-01-06T03:22:40;2.95;;;2.00;;
30707;SDS011;17458;48.958;8.284;2023-01-06T03:25:26;3.97;;;2.28;;
30707;SDS011;17458;48.958;8.284;2023-01-06T03:28:10;3.15;;;2.20;;
30707;SDS011;17458;48.958;8.284;2023-01-06T03:37:38;2.10;;;1.90;;
30707;SDS011;17458;48.958;8.284;2023-01-06T03:43:38;2.28;;;2.08;;
30707;SDS011;17458;48.958;8.284;2023-01-06T03:47:02;2.00;;;1.80;;
30707;SDS011;17458;48.958;8.284;2023-01-06T03:53:28;3.97;;;1.80;;
30707;SDS011;17458;48.958;8.284;2023-01-06T03:56:22;3.88;;;2.00;;
30707;SDS011;17458;48.958;8.284;2023-01-06T03:59:14;2.33;;;2.10;;
30707;SDS011;17458;48.958;8.284;2023-01-06T04:02:03;2.33;;;1.92;;
30707;SDS011;17458;48.958;8.284;2023-01-06T04:08:00;2.75;;;2.22;;
30707;SDS011;17458;48.958;8.284;2023-01-06T04:10:45;3.67;;;2.50;;
30707;SDS011;17458;48.958;8.284;2023-01-06T04:13:29;3.92;;;2.50;;
30707;SDS011;17458;48.958;8.284;2023-01-06T04:16:14;2.72;;;2.47;;
30707;SDS011;17458;48.958;8.284;2023-01-06T04:18:59;5.30;;;2.63;;
30707;SDS011;17458;48.958;8.284;2023-01-06T04:21:44;4.30;;;2.60;;
30707;SDS011;17458;48.958;8.284;2023-01-06T04:24:28;3.58;;;3.03;;
30707;SDS011;17458;48.958;8.284;2023-01-06T04:27:13;3.80;;;3.10;;
30707;SDS011;17458;48.958;8.284;2023-01-06T04:29:57;3.50;;;2.92;;
30707;SDS011;17458;48.958;8.284;2023-01-06T04:32:42;3.60;;;2.85;;
30707;SDS011;17458;48.958;8.284;2023-01-06T04:35:27;5.25;;;3.28;;
30707;SDS011;17458;48.958;8.284;2023-01-06T04:38:11;3.60;;;3.22;;
30707;SDS011;17458;48.958;8.284;2023-01-06T04:40:55;3.53;;;3.22;;
30707;SDS011;17458;48.958;8.284;2023-01-06T04:43:40;4.32;;;3.55;;
30707;SDS011;17458;48.958;8.284;2023-01-06T04:46:27;6.90;;;3.65;;
30707;SDS011;17458;48.958;8.284;2023-01-06T04:49:11;3.67;;;3.22;;
30707;SDS011;17458;48.958;8.284;2023-01-06T04:51:56;3.42;;;3.13;;
30707;SDS011;17458;48.958;8.284;2023-01-06T04:54:40;4.97;;;3.65;;
30707;SDS011;17458;48.958;8.284;2023-01-06T04:57:24;4.32;;;3.13;;
30707;SDS011;17458;48.958;8.284;2023-01-06T05:00:09;3.83;;;3.33;;
30707;SDS011;17458;48.958;8.284;2023-01-06T05:02:53;4.18;;;3.20;;
30707;SDS011;17458;48.958;8.284;2023-01-06T05:05:37;8.15;;;3.65;;
30707;SDS011;17458;48.958;8.284;2023-01-06T05:08:21;4.93;;;2.92;;
30707;SDS011;17458;48.958;8.284;2023-01-06T05:11:07;6.35;;;3.38;;
30707;SDS011;17458;48.958;8.284;2023-01-06T05:14:02;8.02;;;3.40;;
30707;SDS011;17458;48.958;8.284;2023-01-06T05:16:46;5.70;;;3.22;;
30707;SDS011;17458;48.958;8.284;2023-01-06T05:19:30;4.28;;;3.35;;
30707;SDS011;17458;48.958;8.284;2023-01-06T05:22:14;8.13;;;3.92;;
30707;SDS011;17458;48.958;8.284;2023-01-06T05:24:58;4.30;;;3.90;;
30707;SDS011;17458;48.958;8.284;2023-01-06T05:27:42;5.15;;;3.42;;
30707;SDS011;17458;48.958;8.284;2023-01-06T05:30:26;5.70;;;3.33;;
30707;SDS011;17458;48.958;8.284;2023-01-06T05:33:10;4.88;;;3.80;;
30707;SDS011;17458;48.958;8.284;2023-01-06T05:35:58;6.95;;;3.33;;
30707;SDS011;17458;48.958;8.284;2023-01-06T05:38:43;4.95;;;3.85;;
30707;SDS011;17458;48.958;8.284;2023-01-06T05:41:28;7.25;;;3.88;;
30707;SDS011;17458;48.958;8.284;2023-01-06T05:44:12;4.45;;;3.97;;
30707;SDS011;17458;48.958;8.284;2023-01-06T05:46:56;4.78;;;3.08;;
30707;SDS011;17458;48.958;8.284;2023-01-06T05:49:40;5.53;;;4.00;;
30707;SDS011;17458;48.958;8.284;2023-01-06T05:52:24;5.97;;;4.30;;
30707;SDS011;17458;48.958;8.284;2023-01-06T05:55:08;7.40;;;3.97;;
30707;SDS011;17458;48.958;8.284;2023-01-06T05:57:53;5.30;;;3.72;;
30707;SDS011;17458;48.958;8.284;2023-01-06T06:00:37;6.82;;;4.07;;
30707;SDS011;17458;48.958;8.284;2023-01-06T06:03:21;5.20;;;4.30;;
30707;SDS011;17458;48.958;8.284;2023-01-06T06:06:05;4.97;;;3.92;;
30707;SDS011;17458;48.958;8.284;2023-01-06T06:08:49;4.40;;;3.72;;
30707;SDS011;17458;48.958;8.284;2023-01-06T06:11:33;6.53;;;4.38;;
30707;SDS011;17458;48.958;8.284;2023-01-06T06:14:17;5.35;;;4.10;;
30707;SDS011;17458;48.958;8.284;2023-01-06T06:17:01;6.43;;;3.60;;
30707;SDS011;17458;48.958;8.284;2023-01-06T06:19:45;4.63;;;4.00;;
30707;SDS011;17458;48.958;8.284;2023-01-06T06:22:29;8.55;;;4.82;;
30707;SDS011;17458;48.958;8.284;2023-01-06T06:25:13;4.65;;;3.95;;
30707;SDS011;17458;48.958;8.284;2023-01-06T06:27:58;5.13;;;4.20;;
30707;SDS011;17458;48.958;8.284;2023-01-06T06:30:42;7.03;;;4.30;;
30707;SDS011;17458;48.958;8.284;2023-01-06T06:33:26;4.60;;;4.13;;
30707;SDS011;17458;48.958;8.284;2023-01-06T06:36:10;6.80;;;4.18;;
30707;SDS011;17458;48.958;8.284;2023-01-06T06:38:59;4.72;;;4.20;;
30707;SDS011;17458;48.958;8.284;2023-01-06T06:41:44;7.90;;;4.38;;
30707;SDS011;17458;48.958;8.284;2023-01-06T06:44:28;11.95;;;4.85;;
30707;SDS011;17458;48.958;8.284;2023-01-06T06:47:12;6.57;;;4.38;;
30707;SDS011;17458;48.958;8.284;2023-01-06T06:49:57;5.90;;;4.60;;
30707;SDS011;17458;48.958;8.284;2023-01-06T06:52:41;7.57;;;4.35;;
30707;SDS011;17458;48.958;8.284;2023-01-06T06:55:25;7.25;;;3.70;;
30707;SDS011;17458;48.958;8.284;2023-01-06T06:58:09;5.68;;;4.70;;
30707;SDS011;17458;48.958;8.284;2023-01-06T07:00:53;6.55;;;4.22;;
30707;SDS011;17458;48.958;8.284;2023-01-06T07:03:37;6.53;;;4.72;;
30707;SDS011;17458;48.958;8.284;2023-01-06T07:06:21;5.90;;;4.22;;
30707;SDS011;17458;48.958;8.284;2023-01-06T07:09:08;5.30;;;4.25;;
30707;SDS011;17458;48.958;8.284;2023-01-06T07:11:51;8.25;;;4.72;;
30707;SDS011;17458;48.958;8.284;2023-01-06T07:14:35;4.40;;;3.90;;
30707;SDS011;17458;48.958;8.284;2023-01-06T07:17:24;5.85;;;4.05;;
30707;SDS011;17458;48.958;8.284;2023-01-06T07:20:10;7.63;;;4.90;;
30707;SDS011;17458;48.958;8.284;2023-01-06T07:22:54;6.07;;;4.40;;
30707;SDS011;17458;48.958;8.284;2023-01-06T07:25:39;7.57;;;4.10;;
30707;SDS011;17458;48.958;8.284;2023-01-06T07:28:23;4.60;;;4.05;;
30707;SDS011;17458;48.958;8.284;2023-01-06T07:31:08;7.35;;;4.90;;
30707;SDS011;17458;48.958;8.284;2023-01-06T07:33:52;4.93;;;3.95;;
30707;SDS011;17458;48.958;8.284;2023-01-06T07:36:36;3.78;;;3.38;;
30707;SDS011;17458;48.958;8.284;2023-01-06T07:39:21;6.57;;;3.72;;
30707;SDS011;17458;48.958;8.284;2023-01-06T07:42:09;4.65;;;3.33;;
30707;SDS011;17458;48.958;8.284;2023-01-06T07:44:53;5.43;;;3.38;;
30707;SDS011;17458;48.958;8.284;2023-01-06T07:47:38;8.80;;;3.55;;
30707;SDS011;17458;48.958;8.284;2023-01-06T07:50:22;5.10;;;3.20;;
30707;SDS011;17458;48.958;8.284;2023-01-06T07:53:07;4.88;;;3.20;;
30707;SDS011;17458;48.958;8.284;2023-01-06T07:55:52;4.97;;;3.08;;
30707;SDS011;17458;48.958;8.284;2023-01-06T07:58:37;5.72;;;2.70;;
30707;SDS011;17458;48.958;8.284;2023-01-06T08:01:21;6.50;;;2.88;;
30707;SDS011;17458;48.958;8.284;2023-01-06T08:04:06;3.47;;;2.30;;
30707;SDS011;17458;48.958;8.284;2023-01-06T08:06:53;4.65;;;2.58;;
30707;SDS011;17458;48.958;8.284;2023-01-06T08:09:37;2.55;;;1.80;;
30707;SDS011;17458;48.958;8.284;2023-01-06T08:12:22;3.53;;;2.58;;
30707;SDS011;17458;48.958;8.284;2023-01-06T08:15:06;2.58;;;2.38;;
30707;SDS011;17458;48.958;8.284;2023-01-06T08:17:51;3.00;;;1.98;;
30707;SDS011;17458;48.958;8.284;2023-01-06T08:20:37;2.28;;;1.83;;
30707;SDS011;17458;48.958;8.284;2023-01-06T08:23:21;6.18;;;2.05;;
30707;SDS011;17458;48.958;8.284;2023-01-06T08:26:09;2.05;;;1.85;;
30707;SDS011;17458;48.958;8.284;2023-01-06T08:28:56;3.78;;;2.25;;
30707;SDS011;17458;48.958;8.284;2023-01-06T08:31:40;2.67;;;1.92;;
30707;SDS011;17458;48.958;8.284;2023-01-06T08:34:24;2.50;;;2.03;;
30707;SDS011;17458;48.958;8.284;2023-01-06T08:37:08;1.73;;;1.63;;
30707;SDS011;17458;48.958;8.284;2023-01-06T08:39:52;2.97;;;1.77;;
30707;SDS011;17458;48.958;8.284;2023-01-06T08:42:37;2.42;;;1.75;;
30707;SDS011;17458;48.958;8.284;2023-01-06T08:45:21;3.22;;;1.48;;
30707;SDS011;17458;48.958;8.284;2023-01-06T08:48:05;2.75;;;1.63;;
30707;SDS011;17458;48.958;8.284;2023-01-06T08:50:49;1.38;;;1.02;;
30707;SDS011;17458;48.958;8.284;2023-01-06T08:53:33;3.25;;;1.90;;
30707;SDS011;17458;48.958;8.284;2023-01-06T08:56:19;1.80;;;1.70;;
30707;SDS011;17458;48.958;8.284;2023-01-06T08:59:09;1.30;;;1.20;;
30707;SDS011;17458;48.958;8.284;2023-01-06T09:01:59;3.15;;;1.70;;
30707;SDS011;17458;48.958;8.284;2023-01-06T09:04:44;1.40;;;1.30;;
30707;SDS011;17458;48.958;8.284;2023-01-06T09:07:28;2.67;;;1.13;;
30707;SDS011;17458;48.958;8.284;2023-01-06T09:10:12;1.15;;;1.10;;
30707;SDS011;17458;48.958;8.284;2023-01-06T09:12:56;4.25;;;1.35;;
30707;SDS011;17458;48.958;8.284;2023-01-06T09:15:43;1.30;;;1.10;;
30707;SDS011;17458;48.958;8.284;2023-01-06T09:18:28;4.97;;;1.08;;
30707;SDS011;17458;48.958;8.284;2023-01-06T09:21:12;2.03;;;1.63;;
30707;SDS011;17458;48.958;8.284;2023-01-06T09:23:56;1.70;;;1.40;;
30707;SDS011;17458;48.958;8.284;2023-01-06T09:26:40;8.23;;;1.35;;
30707;SDS011;17458;48.958;8.284;2023-01-06T09:29:25;7.88;;;1.48;;
30707;SDS011;17458;48.958;8.284;2023-01-06T09:32:09;2.15;;;1.23;;
30707;SDS011;17458;48.958;8.284;2023-01-06T09:34:53;2.67;;;1.55;;
30707;SDS011;17458;48.958;8.284;2023-01-06T09:37:37;1.25;;;1.25;;
30707;SDS011;17458;48.958;8.284;2023-01-06T09:40:26;1.33;;;1.23;;
30707;SDS011;17458;48.958;8.284;2023-01-06T09:46:38;4.97;;;1.35;;
30707;SDS011;17458;48.958;8.284;2023-01-06T09:49:26;1.67;;;1.52;;
30707;SDS011;17458;48.958;8.284;2023-01-06T09:52:31;3.25;;;1.13;;
30707;SDS011;17458;48.958;8.284;2023-01-06T09:58:23;1.27;;;1.17;;
30707;SDS011;17458;48.958;8.284;2023-01-06T10:01:22;1.40;;;1.30;;
30707;SDS011;17458;48.958;8.284;2023-01-06T10:04:18;6.10;;;1.42;;
30707;SDS011;17458;48.958;8.284;2023-01-06T10:13:27;2.30;;;1.40;;
30707;SDS011;17458;48.958;8.284;2023-01-06T10:23:11;2.60;;;1.40;;
30707;SDS011;17458;48.958;8.284;2023-01-06T10:26:31;1.50;;;1.40;;
30707;SDS011;17458;48.958;8.284;2023-01-06T10:29:14;1.45;;;1.23;;
30707;SDS011;17458;48.958;8.284;2023-01-06T10:32:00;1.20;;;1.10;;
30707;SDS011;17458;48.958;8.284;2023-01-06T10:34:47;1.67;;;1.38;;
30707;SDS011;17458;48.958;8.284;2023-01-06T10:37:36;1.10;;;1.10;;
30707;SDS011;17458;48.958;8.284;2023-01-06T10:40:26;1.73;;;1.13;;
30707;SDS011;17458;48.958;8.284;2023-01-06T10:43:13;1.45;;;1.35;;
30707;SDS011;17458;48.958;8.284;2023-01-06T10:45:57;1.23;;;1.10;;
30707;SDS011;17458;48.958;8.284;2023-01-06T10:48:43;0.93;;;0.93;;
30707;SDS011;17458;48.958;8.284;2023-01-06T10:51:37;1.08;;;1.08;;
30707;SDS011;17458;48.958;8.284;2023-01-06T10:54:28;1.98;;;1.17;;
30707;SDS011;17458;48.958;8.284;2023-01-06T10:57:19;1.30;;;1.20;;
30707;SDS011;17458;48.958;8.284;2023-01-06T11:02:53;1.00;;;1.00;;
30707;SDS011;17458;48.958;8.284;2023-01-06T11:05:38;1.40;;;1.30;;
30707;SDS011;17458;48.958;8.284;2023-01-06T11:08:25;1.15;;;1.10;;
30707;SDS011;17458;48.958;8.284;2023-01-06T11:11:11;1.60;;;1.40;;
30707;SDS011;17458;48.958;8.284;2023-01-06T11:14:00;1.55;;;1.30;;
30707;SDS011;17458;48.958;8.284;2023-01-06T11:16:52;1.55;;;1.45;;
30707;SDS011;17458;48.958;8.284;2023-01-06T11:19:42;4.00;;;1.20;;
30707;SDS011;17458;48.958;8.284;2023-01-06T11:22:32;1.58;;;1.48;;
30707;SDS011;17458;48.958;8.284;2023-01-06T11:28:17;4.97;;;1.63;;
30707;SDS011;17458;48.958;8.284;2023-01-06T11:31:05;7.28;;;2.80;;
30707;SDS011;17458;48.958;8.284;2023-01-06T11:33:54;5.00;;;1.50;;
30707;SDS011;17458;48.958;8.284;2023-01-06T11:36:43;1.20;;;1.10;;
30707;SDS011;17458;48.958;8.284;2023-01-06T11:39:31;6.07;;;2.42;;
30707;SDS011;17458;48.958;8.284;2023-01-06T11:42:18;3.10;;;1.95;;
30707;SDS011;17458;48.958;8.284;2023-01-06T11:45:04;1.10;;;1.10;;
30707;SDS011;17458;48.958;8.284;2023-01-06T11:47:49;1.20;;;1.10;;
30707;SDS011;17458;48.958;8.284;2023-01-06T11:50:33;1.45;;;1.25;;
30707;SDS011;17458;48.958;8.284;2023-01-06T11:53:18;1.90;;;1.45;;
30707;SDS011;17458;48.958;8.284;2023-01-06T11:56:05;7.57;;;1.40;;
30707;SDS011;17458;48.958;8.284;2023-01-06T12:01:54;1.30;;;1.15;;
30707;SDS011;17458;48.958;8.284;2023-01-06T12:04:50;6.70;;;3.97;;
30707;SDS011;17458;48.958;8.284;2023-01-06T12:07:43;1.85;;;1.27;;
30707;SDS011;17458;48.958;8.284;2023-01-06T12:10:34;1.15;;;1.05;;
30707;SDS011;17458;48.958;8.284;2023-01-06T12:13:20;1.70;;;1.27;;
30707;SDS011;17458;48.958;8.284;2023-01-06T12:16:12;1.85;;;1.38;;
30707;SDS011;17458;48.958;8.284;2023-01-06T12:19:21;3.22;;;1.80;;
30707;SDS011;17458;48.958;8.284;2023-01-06T12:22:18;1.23;;;1.13;;
30707;SDS011;17458;48.958;8.284;2023-01-06T12:25:40;1.30;;;0.95;;
30707;SDS011;17458;48.958;8.284;2023-01-06T12:28:36;1.10;;;0.98;;
30707;SDS011;17458;48.958;8.284;2023-01-06T12:32:09;2.78;;;1.38;;
30707;SDS011;17458;48.958;8.284;2023-01-06T12:34:41;1.25;;;1.15;;
30707;SDS011;17458;48.958;8.284;2023-01-06T12:37:33;1.45;;;1.15;;
30707;SDS011;17458;48.958;8.284;2023-01-06T12:40:35;1.70;;;1.40;;
30707;SDS011;17458;48.958;8.284;2023-01-06T12:43:31;1.25;;;1.08;;
30707;SDS011;17458;48.958;8.284;2023-01-06T12:46:18;1.50;;;1.40;;
30707;SDS011;17458;48.958;8.284;2023-01-06T12:49:24;1.60;;;1.50;;
30707;SDS011;17458;48.958;8.284;2023-01-06T12:52:18;3.08;;;1.30;;
30707;SDS011;17458;48.958;8.284;2023-01-06T12:55:11;1.13;;;1.10;;
30707;SDS011;17458;48.958;8.284;2023-01-06T12:57:58;0.98;;;0.98;;
30707;SDS011;17458;48.958;8.284;2023-01-06T13:01:15;1.33;;;1.23;;
30707;SDS011;17458;48.958;8.284;2023-01-06T13:10:43;1.30;;;1.20;;
30707;SDS011;17458;48.958;8.284;2023-01-06T13:13:50;1.10;;;1.10;;
30707;SDS011;17458;48.958;8.284;2023-01-06T13:16:37;3.17;;;1.80;;
30707;SDS011;17458;48.958;8.284;2023-01-06T13:19:39;1.55;;;1.30;;
30707;SDS011;17458;48.958;8.284;2023-01-06T13:31:37;2.28;;;1.63;;
30707;SDS011;17458;48.958;8.284;2023-01-06T13:40:44;3.60;;;1.20;;
30707;SDS011;17458;48.958;8.284;2023-01-06T13:43:32;1.30;;;1.20;;
30707;SDS011;17458;48.958;8.284;2023-01-06T13:46:18;2.90;;;1.63;;
30707;SDS011;17458;48.958;8.284;2023-01-06T13:49:04;1.38;;;1.27;;
30707;SDS011;17458;48.958;8.284;2023-01-06T13:51:53;1.42;;;1.33;;
30707;SDS011;17458;48.958;8.284;2023-01-06T14:00:15;1.60;;;1.50;;
30707;SDS011;17458;48.958;8.284;2023-01-06T14:03:14;2.25;;;1.30;;
30707;SDS011;17458;48.958;8.284;2023-01-06T14:09:04;3.35;;;1.65;;
30707;SDS011;17458;48.958;8.284;2023-01-06T14:12:07;2.13;;;1.20;;
30707;SDS011;17458;48.958;8.284;2023-01-06T14:15:01;2.55;;;2.30;;
30707;SDS011;17458;48.958;8.284;2023-01-06T14:17:48;1.50;;;1.40;;
30707;SDS011;17458;48.958;8.284;2023-01-06T14:20:33;4.15;;;2.03;;
30707;SDS011;17458;48.958;8.284;2023-01-06T14:23:21;1.45;;;1.35;;
30707;SDS011;17458;48.958;8.284;2023-01-06T14:26:07;4.38;;;2.08;;
30707;SDS011;17458;48.958;8.284;2023-01-06T14:28:51;5.53;;;1.63;;
30707;SDS011;17458;48.958;8.284;2023-01-06T14:31:38;3.47;;;1.88;;
30707;SDS011;17458;48.958;8.284;2023-01-06T14:34:26;8.57;;;1.60;;
30707;SDS011;17458;48.958;8.284;2023-01-06T14:37:11;1.58;;;1.48;;
30707;SDS011;17458;48.958;8.284;2023-01-06T14:39:57;1.50;;;1.40;;
30707;SDS011;17458;48.958;8.284;2023-01-06T14:42:44;2.50;;;1.45;;
30707;SDS011;17458;48.958;8.284;2023-01-06T14:45:34;1.33;;;1.23;;
30707;SDS011;17458;48.958;8.284;2023-01-06T14:48:21;1.88;;;1.33;;
30707;SDS011;17458;48.958;8.284;2023-01-06T14:51:11;1.90;;;1.48;;
30707;SDS011;17458;48.958;8.284;2023-01-06T15:00:26;1.48;;;1.38;;
30707;SDS011;17458;48.958;8.284;2023-01-06T15:03:22;1.30;;;1.20;;
30707;SDS011;17458;48.958;8.284;2023-01-06T15:06:18;1.42;;;1.30;;
30707;SDS011;17458;48.958;8.284;2023-01-06T15:09:18;1.33;;;1.23;;
30707;SDS011;17458;48.958;8.284;2023-01-06T15:12:19;1.10;;;1.10;;
30707;SDS011;17458;48.958;8.284;2023-01-06T15:15:23;3.92;;;1.10;;
30707;SDS011;17458;48.958;8.284;2023-01-06T15:18:10;2.72;;;1.45;;
30707;SDS011;17458;48.958;8.284;2023-01-06T15:20:56;1.55;;;1.45;;
30707;SDS011;17458;48.958;8.284;2023-01-06T15:23:42;2.75;;;1.50;;
30707;SDS011;17458;48.958;8.284;2023-01-06T15:26:28;7.47;;;1.52;;
30707;SDS011;17458;48.958;8.284;2023-01-06T15:29:18;2.50;;;1.40;;
30707;SDS011;17458;48.958;8.284;2023-01-06T15:32:05;3.40;;;1.58;;
30707;SDS011;17458;48.958;8.284;2023-01-06T15:34:54;1.10;;;1.10;;
30707;SDS011;17458;48.958;8.284;2023-01-06T15:37:41;1.95;;;1.30;;
30707;SDS011;17458;48.958;8.284;2023-01-06T15:40:28;1.40;;;1.30;;
30707;SDS011;17458;48.958;8.284;2023-01-06T15:43:16;3.33;;;2.65;;
30707;SDS011;17458;48.958;8.284;2023-01-06T15:46:03;4.43;;;1.30;;
30707;SDS011;17458;48.958;8.284;2023-01-06T15:48:49;1.35;;;1.27;;
30707;SDS011;17458;48.958;8.284;2023-01-06T15:51:34;1.42;;;1.33;;
30707;SDS011;17458;48.958;8.284;2023-01-06T15:54:19;1.17;;;1.17;;
30707;SDS011;17458;48.958;8.284;2023-01-06T15:57:09;1.77;;;1.33;;
30707;SDS011;17458;48.958;8.284;2023-01-06T15:59:59;1.35;;;1.25;;
30707;SDS011;17458;48.958;8.284;2023-01-06T16:02:48;1.25;;;1.23;;
30707;SDS011;17458;48.958;8.284;2023-01-06T16:08:25;1.48;;;1.38;;
30707;SDS011;17458;48.958;8.284;2023-01-06T16:14:25;1.33;;;1.25;;
30707;SDS011;17458;48.958;8.284;2023-01-06T16:20:17;2.15;;;2.00;;
30707;SDS011;17458;48.958;8.284;2023-01-06T16:23:05;2.00;;;1.90;;
30707;SDS011;17458;48.958;8.284;2023-01-06T16:26:01;2.60;;;1.33;;
30707;SDS011;17458;48.958;8.284;2023-01-06T16:28:49;1.48;;;1.38;;
30707;SDS011;17458;48.958;8.284;2023-01-06T16:31:36;2.28;;;1.80;;
30707;SDS011;17458;48.958;8.284;2023-01-06T16:34:23;2.97;;;1.73;;
30707;SDS011;17458;48.958;8.284;2023-01-06T16:37:09;1.80;;;1.70;;
30707;SDS011;17458;48.958;8.284;2023-01-06T16:40:02;3.42;;;2.03;;
30707;SDS011;17458;48.958;8.284;2023-01-06T16:43:12;3.80;;;3.33;;
30707;SDS011;17458;48.958;8.284;2023-01-06T16:45:57;4.03;;;3.10;;
30707;SDS011;17458;48.958;8.284;2023-01-06T16:48:44;6.40;;;3.63;;
30707;SDS011;17458;48.958;8.284;2023-01-06T16:51:31;6.55;;;3.42;;
30707;SDS011;17458;48.958;8.284;2023-01-06T16:54:19;5.20;;;3.00;;
30707;SDS011;17458;48.958;8.284;2023-01-06T16:57:07;3.70;;;2.72;;
30707;SDS011;17458;48.958;8.284;2023-01-06T16:59:52;6.47;;;3.80;;
30707;SDS011;17458;48.958;8.284;2023-01-06T17:02:36;2.05;;;1.83;;
30707;SDS011;17458;48.958;8.284;2023-01-06T17:05:24;6.07;;;2.00;;
30707;SDS011;17458;48.958;8.284;2023-01-06T17:08:11;2.03;;;1.73;;
30707;SDS011;17458;48.958;8.284;2023-01-06T17:10:59;1.85;;;1.25;;
30707;SDS011;17458;48.958;8.284;2023-01-06T17:13:54;4.13;;;1.85;;
30707;SDS011;17458;48.958;8.284;2023-01-06T17:16:42;3.20;;;2.10;;
30707;SDS011;17458;48.958;8.284;2023-01-06T17:19:30;2.55;;;2.17;;
30707;SDS011;17458;48.958;8.284;2023-01-06T17:25:01;1.92;;;1.60;;
30707;SDS011;17458;48.958;8.284;2023-01-06T17:27:54;12.80;;;5.35;;
30707;SDS011;17458;48.958;8.284;2023-01-06T17:30:38;9.57;;;4.65;;
30707;SDS011;17458;48.958;8.284;2023-01-06T17:33:22;9.85;;;3.20;;
30707;SDS011;17458;48.958;8.284;2023-01-06T17:36:23;3.65;;;2.25;;
30707;SDS011;17458;48.958;8.284;2023-01-06T17:39:15;2.50;;;2.30;;
30707;SDS011;17458;48.958;8.284;2023-01-06T17:44:50;4.22;;;2.83;;
30707;SDS011;17458;48.958;8.284;2023-01-06T17:47:43;3.58;;;2.90;;
30707;SDS011;17458;48.958;8.284;2023-01-06T17:50:29;2.95;;;2.70;;
30707;SDS011;17458;48.958;8.284;2023-01-06T17:53:16;3.15;;;2.22;;
30707;SDS011;17458;48.958;8.284;2023-01-06T17:56:21;7.22;;;2.17;;
30707;SDS011;17458;48.958;8.284;2023-01-06T17:59:08;2.33;;;2.13;;
30707;SDS011;17458;48.958;8.284;2023-01-06T18:01:59;2.97;;;2.10;;
30707;SDS011;17458;48.958;8.284;2023-01-06T18:04:44;2.70;;;2.17;;
30707;SDS011;17458;48.958;8.284;2023-01-06T18:07:30;3.58;;;2.65;;
30707;SDS011;17458;48.958;8.284;2023-01-06T18:10:15;3.47;;;3.00;;
30707;SDS011;17458;48.958;8.284;2023-01-06T18:13:13;3.80;;;3.10;;
30707;SDS011;17458;48.958;8.284;2023-01-06T18:16:01;3.78;;;2.72;;
30707;SDS011;17458;48.958;8.284;2023-01-06T18:18:53;3.92;;;3.30;;
30707;SDS011;17458;48.958;8.284;2023-01-06T18:21:46;4.68;;;3.47;;
30707;SDS011;17458;48.958;8.284;2023-01-06T18:24:38;4.75;;;4.18;;
30707;SDS011;17458;48.958;8.284;2023-01-06T18:27:30;5.55;;;4.85;;
30707;SDS011;17458;48.958;8.284;2023-01-06T18:30:25;4.43;;;3.00;;
30707;SDS011;17458;48.958;8.284;2023-01-06T18:33:14;4.13;;;3.15;;
30707;SDS011;17458;48.958;8.284;2023-01-06T18:35:59;3.45;;;2.90;;
30707;SDS011;17458;48.958;8.284;2023-01-06T18:38:44;3.75;;;3.15;;
30707;SDS011;17458;48.958;8.284;2023-01-06T18:41:37;7.47;;;3.80;;
30707;SDS011;17458;48.958;8.284;2023-01-06T18:44:22;9.05;;;5.22;;
30707;SDS011;17458;48.958;8.284;2023-01-06T18:47:15;9.10;;;6.03;;
30707;SDS011;17458;48.958;8.284;2023-01-06T18:50:18;19.85;;;8.65;;
30707;SDS011;17458;48.958;8.284;2023-01-06T18:55:58;24.08;;;11.60;;
30707;SDS011;17458;48.958;8.284;2023-01-06T18:58:46;12.02;;;7.45;;